Time;durP1;ratioP1;P1;durP2;ratioP2;P2;SDS_P1;SDS_P2;PMS_P1;PMS_P2;Temp;Humidity;BMP_temperature;BMP_pressure;BME280_temperature;BME280_humidity;BME280_pressure;Samples;Min_cycle;Max_cycle;Signal;HPM_P1;HPM_P2
2022/12/30 00:00:52;;;;;;;0.50;0.50;;;;;;;;;;5032335;28;20229;-32
2022/12/30 00:03:19;;;;;;;1.07;0.97;;;;;;;;;;5032452;28;20637;-30
2022/12/30 00:05:46;;;;;;;0.80;0.80;;;;;;;;;;5024293;28;20217;-37
2022/12/30 00:10:56;;;;;;;1.03;0.73;;;;;;;;;;5031556;28;20254;-38
2022/12/30 00:33:10;;;;;;;0.70;0.70;;;;;;;;;;5032275;28;20399;-35
2022/12/30 00:35:38;;;;;;;1.10;1.00;;;;;;;;;;5029759;28;20216;-38
2022/12/30 00:38:05;;;;;;;1.50;1.40;;;;;;;;;;5029848;28;20210;-38
2022/12/30 00:40:32;;;;;;;1.40;1.03;;;;;;;;;;5031729;28;20222;-29
2022/12/30 00:43:09;;;;;;;1.77;0.90;;;;;;;;;;5024067;28;20222;-34
2022/12/30 00:45:37;;;;;;;0.70;0.70;;;;;;;;;;5031931;28;20269;-31
2022/12/30 00:56:18;;;;;;;1.10;1.00;;;;;;;;;;5028876;28;20327;-38
2022/12/30 00:58:47;;;;;;;0.90;0.80;;;;;;;;;;5026304;28;20203;-40
2022/12/30 01:01:14;;;;;;;0.90;0.90;;;;;;;;;;5032143;28;20226;-36
2022/12/30 01:03:41;;;;;;;1.47;1.20;;;;;;;;;;5032544;28;20238;-32
2022/12/30 01:06:08;;;;;;;0.80;0.80;;;;;;;;;;5025464;28;20217;-33
2022/12/30 01:08:35;;;;;;;4.53;1.20;;;;;;;;;;5027722;28;20230;-34
2022/12/30 01:11:06;;;;;;;0.80;0.80;;;;;;;;;;5032587;28;20233;-33
2022/12/30 01:13:33;;;;;;;0.90;0.90;;;;;;;;;;5029675;28;20210;-31
2022/12/30 01:16:08;;;;;;;0.70;0.70;;;;;;;;;;5031891;28;20202;-34
2022/12/30 01:18:35;;;;;;;1.73;0.80;;;;;;;;;;5028387;28;20202;-32
2022/12/30 01:21:03;;;;;;;1.63;1.00;;;;;;;;;;5027132;28;20226;-37
2022/12/30 01:23:31;;;;;;;1.63;0.80;;;;;;;;;;5035534;28;20218;-33
2022/12/30 01:26:00;;;;;;;0.90;0.90;;;;;;;;;;5037515;28;20198;-31
2022/12/30 01:28:29;;;;;;;0.80;0.77;;;;;;;;;;5030443;28;20252;-33
2022/12/30 01:30:56;;;;;;;0.80;0.80;;;;;;;;;;5036826;28;20237;-36
2022/12/30 01:33:24;;;;;;;1.73;0.73;;;;;;;;;;5036954;28;20209;-33
2022/12/30 01:35:52;;;;;;;0.70;0.70;;;;;;;;;;5033772;28;20207;-35
2022/12/30 01:38:19;;;;;;;1.40;1.17;;;;;;;;;;5036820;28;20202;-32
2022/12/30 01:40:46;;;;;;;1.43;1.20;;;;;;;;;;5037161;28;20701;-34
2022/12/30 01:43:14;;;;;;;2.67;1.77;;;;;;;;;;5027433;28;20214;-34
2022/12/30 01:45:42;;;;;;;2.43;1.60;;;;;;;;;;5035707;28;20214;-40
2022/12/30 01:48:12;;;;;;;1.77;1.23;;;;;;;;;;5035935;28;20229;-34
2022/12/30 01:50:45;;;;;;;2.90;1.50;;;;;;;;;;5035405;28;20210;-32
2022/12/30 01:53:13;;;;;;;1.87;0.87;;;;;;;;;;5031195;28;20234;-36
2022/12/30 01:55:42;;;;;;;1.50;0.90;;;;;;;;;;5035363;28;20202;-34
2022/12/30 01:58:11;;;;;;;1.00;0.80;;;;;;;;;;5032353;28;20213;-35
2022/12/30 02:00:38;;;;;;;1.10;1.00;;;;;;;;;;5027236;28;20208;-31
2022/12/30 02:03:06;;;;;;;1.10;0.73;;;;;;;;;;5031803;28;20202;-38
2022/12/30 02:05:33;;;;;;;1.37;0.80;;;;;;;;;;5034936;28;20203;-37
2022/12/30 02:08:05;;;;;;;0.97;0.97;;;;;;;;;;5035959;28;20277;-35
2022/12/30 02:10:33;;;;;;;0.53;0.53;;;;;;;;;;5029256;28;20195;-34
2022/12/30 02:13:00;;;;;;;0.70;0.70;;;;;;;;;;5026397;28;20202;-37
2022/12/30 02:15:29;;;;;;;0.53;0.53;;;;;;;;;;5030180;28;20203;-37
2022/12/30 02:18:00;;;;;;;0.50;0.50;;;;;;;;;;5035468;28;20199;-36
2022/12/30 02:20:48;;;;;;;2.87;0.90;;;;;;;;;;5028716;28;20205;-33
2022/12/30 02:23:29;;;;;;;0.80;0.77;;;;;;;;;;4993150;28;20215;-34
2022/12/30 02:26:11;;;;;;;0.50;0.50;;;;;;;;;;5034608;28;20221;-38
2022/12/30 02:28:52;;;;;;;0.50;0.50;;;;;;;;;;5030177;28;20610;-31
2022/12/30 02:31:27;;;;;;;1.10;0.87;;;;;;;;;;5031560;28;20226;-38
2022/12/30 02:34:00;;;;;;;0.60;0.60;;;;;;;;;;5035023;28;20187;-34
2022/12/30 02:36:30;;;;;;;1.03;1.03;;;;;;;;;;5027240;28;20200;-37
2022/12/30 02:39:03;;;;;;;1.43;1.03;;;;;;;;;;5034131;28;20421;-33
2022/12/30 02:44:39;;;;;;;1.47;0.60;;;;;;;;;;5025402;28;20206;-32
2022/12/30 02:47:12;;;;;;;0.70;0.60;;;;;;;;;;5029652;28;20211;-36
2022/12/30 02:49:40;;;;;;;0.93;0.63;;;;;;;;;;5023427;28;20215;-32
2022/12/30 02:52:16;;;;;;;0.70;0.70;;;;;;;;;;5025319;28;20715;-34
2022/12/30 02:54:43;;;;;;;0.70;0.70;;;;;;;;;;5034490;28;20193;-33
2022/12/30 02:57:24;;;;;;;0.67;0.50;;;;;;;;;;5032015;28;20204;-35
2022/12/30 03:05:34;;;;;;;0.90;0.60;;;;;;;;;;5018525;28;20572;-37
2022/12/30 03:11:15;;;;;;;0.33;0.33;;;;;;;;;;5033601;28;20341;-36
2022/12/30 03:13:45;;;;;;;0.50;0.50;;;;;;;;;;5020043;28;20210;-37
2022/12/30 03:16:15;;;;;;;0.37;0.37;;;;;;;;;;5027666;28;20211;-36
2022/12/30 03:18:44;;;;;;;0.50;0.50;;;;;;;;;;5022235;28;20206;-32
2022/12/30 03:21:12;;;;;;;0.30;0.30;;;;;;;;;;5015517;28;20349;-35
2022/12/30 03:29:12;;;;;;;0.73;0.50;;;;;;;;;;5026674;28;20245;-33
2022/12/30 03:31:40;;;;;;;1.60;0.60;;;;;;;;;;5033663;28;20230;-38
2022/12/30 03:34:08;;;;;;;0.50;0.50;;;;;;;;;;5033547;28;20202;-31
2022/12/30 03:36:38;;;;;;;0.40;0.40;;;;;;;;;;5031281;28;20199;-32
2022/12/30 03:39:07;;;;;;;0.60;0.50;;;;;;;;;;5017417;28;20210;-33
2022/12/30 03:41:35;;;;;;;0.87;0.37;;;;;;;;;;5031982;28;20233;-34
2022/12/30 03:44:02;;;;;;;1.70;0.37;;;;;;;;;;5025478;28;20298;-36
2022/12/30 03:46:31;;;;;;;0.40;0.40;;;;;;;;;;5023205;28;20199;-33
2022/12/30 03:48:58;;;;;;;0.50;0.50;;;;;;;;;;5033576;28;20223;-36
2022/12/30 03:51:27;;;;;;;1.40;0.70;;;;;;;;;;5029928;28;20231;-35
2022/12/30 03:53:54;;;;;;;1.33;0.70;;;;;;;;;;5030880;28;20216;-37
2022/12/30 03:56:21;;;;;;;1.73;0.83;;;;;;;;;;5032911;28;20203;-34
2022/12/30 03:58:48;;;;;;;1.10;0.80;;;;;;;;;;5018252;28;20207;-33
2022/12/30 04:01:15;;;;;;;1.53;0.77;;;;;;;;;;5028020;28;20225;-36
2022/12/30 04:03:43;;;;;;;0.73;0.73;;;;;;;;;;5033427;28;20211;-35
2022/12/30 04:06:10;;;;;;;6.23;0.90;;;;;;;;;;5030515;28;20202;-40
2022/12/30 04:08:38;;;;;;;4.80;0.90;;;;;;;;;;5018123;28;20219;-36
2022/12/30 04:11:05;;;;;;;0.60;0.60;;;;;;;;;;5033777;28;20223;-31
2022/12/30 04:13:32;;;;;;;0.77;0.77;;;;;;;;;;5022458;28;20214;-32
2022/12/30 04:15:59;;;;;;;0.73;0.73;;;;;;;;;;5024430;28;20207;-32
2022/12/30 04:18:27;;;;;;;0.80;0.80;;;;;;;;;;5030395;28;20218;-34
2022/12/30 04:20:54;;;;;;;0.80;0.80;;;;;;;;;;5023617;28;20282;-35
2022/12/30 04:23:21;;;;;;;0.60;0.60;;;;;;;;;;5027211;28;20230;-33
2022/12/30 04:25:49;;;;;;;0.50;0.50;;;;;;;;;;5031431;28;20202;-37
2022/12/30 04:28:16;;;;;;;0.87;0.70;;;;;;;;;;5024394;28;20225;-38
2022/12/30 04:30:43;;;;;;;0.70;0.70;;;;;;;;;;5033630;28;20223;-34
2022/12/30 04:33:11;;;;;;;1.63;0.60;;;;;;;;;;5026027;28;20204;-37
2022/12/30 04:35:38;;;;;;;0.70;0.70;;;;;;;;;;5012839;28;20203;-35
2022/12/30 04:38:05;;;;;;;1.50;0.83;;;;;;;;;;5019399;28;20204;-36
2022/12/30 04:40:32;;;;;;;1.63;0.77;;;;;;;;;;5031013;28;20219;-40
2022/12/30 04:43:00;;;;;;;3.83;1.00;;;;;;;;;;5025483;28;20221;-34
2022/12/30 04:45:27;;;;;;;0.80;0.80;;;;;;;;;;5027261;28;20211;-38
2022/12/30 04:47:54;;;;;;;1.07;0.70;;;;;;;;;;5025988;28;20252;-35
2022/12/30 04:50:22;;;;;;;4.07;0.87;;;;;;;;;;5032694;28;20202;-33
2022/12/30 04:55:53;;;;;;;3.60;0.83;;;;;;;;;;5026527;28;20250;-37
2022/12/30 04:58:21;;;;;;;2.10;0.90;;;;;;;;;;5032405;28;20207;-35
2022/12/30 05:00:49;;;;;;;2.53;0.80;;;;;;;;;;5033080;28;20229;-34
2022/12/30 05:03:16;;;;;;;4.13;0.87;;;;;;;;;;5033411;28;20203;-33
2022/12/30 05:05:43;;;;;;;8.40;0.70;;;;;;;;;;5033488;28;20273;-33
2022/12/30 05:08:10;;;;;;;5.50;0.53;;;;;;;;;;5023457;28;20226;-32
2022/12/30 05:10:38;;;;;;;11.50;0.80;;;;;;;;;;5031779;28;20206;-33
2022/12/30 05:13:06;;;;;;;1.63;0.60;;;;;;;;;;5025298;28;20211;-34
2022/12/30 05:15:34;;;;;;;7.13;0.80;;;;;;;;;;5026570;28;20206;-33
2022/12/30 05:18:01;;;;;;;1.10;0.77;;;;;;;;;;5030874;28;20203;-33
2022/12/30 05:20:29;;;;;;;2.13;0.60;;;;;;;;;;5032273;28;20217;-32
2022/12/30 05:22:56;;;;;;;1.43;0.40;;;;;;;;;;5028081;28;20272;-36
2022/12/30 05:28:07;;;;;;;2.40;0.60;;;;;;;;;;5029834;28;20233;-33
2022/12/30 05:30:36;;;;;;;1.47;0.60;;;;;;;;;;5031058;28;20209;-36
2022/12/30 05:33:03;;;;;;;0.33;0.33;;;;;;;;;;5030564;28;20530;-31
2022/12/30 05:35:30;;;;;;;0.60;0.60;;;;;;;;;;5032691;28;20209;-33
2022/12/30 05:37:57;;;;;;;0.40;0.40;;;;;;;;;;5023791;28;20209;-34
2022/12/30 05:40:24;;;;;;;0.50;0.50;;;;;;;;;;5028726;28;20214;-36
2022/12/30 05:42:51;;;;;;;0.70;0.70;;;;;;;;;;5028003;28;20367;-33
2022/12/30 05:45:19;;;;;;;1.00;0.90;;;;;;;;;;5027067;28;20210;-40
2022/12/30 05:47:47;;;;;;;1.17;1.07;;;;;;;;;;5031725;28;20209;-38
2022/12/30 05:50:14;;;;;;;0.60;0.60;;;;;;;;;;5027952;28;20238;-34
2022/12/30 05:52:41;;;;;;;0.83;0.83;;;;;;;;;;5030718;28;20221;-36
2022/12/30 05:55:09;;;;;;;1.07;0.97;;;;;;;;;;5031912;28;20229;-32
2022/12/30 05:57:36;;;;;;;2.00;1.60;;;;;;;;;;5027233;28;20210;-39
2022/12/30 06:00:03;;;;;;;1.60;1.50;;;;;;;;;;5025693;28;20217;-35
2022/12/30 06:02:33;;;;;;;2.00;1.30;;;;;;;;;;5034707;28;20219;-35
2022/12/30 06:05:01;;;;;;;1.20;1.10;;;;;;;;;;5036082;28;20808;-35
2022/12/30 06:07:28;;;;;;;1.70;1.47;;;;;;;;;;5028726;28;20209;-34
2022/12/30 06:09:55;;;;;;;4.10;0.73;;;;;;;;;;5034720;28;20225;-31
2022/12/30 06:12:23;;;;;;;1.13;0.90;;;;;;;;;;5029182;28;20227;-33
2022/12/30 06:14:50;;;;;;;1.03;0.70;;;;;;;;;;5035167;28;20199;-38
2022/12/30 06:17:17;;;;;;;2.63;0.60;;;;;;;;;;5035065;28;20206;-37
2022/12/30 06:19:44;;;;;;;2.93;0.40;;;;;;;;;;5035062;28;20213;-34
2022/12/30 06:22:12;;;;;;;1.83;0.80;;;;;;;;;;5030250;28;20230;-35
2022/12/30 06:24:45;;;;;;;0.80;0.80;;;;;;;;;;5027211;28;20214;-39
2022/12/30 06:27:12;;;;;;;1.80;0.83;;;;;;;;;;5030839;28;20213;-33
2022/12/30 06:29:40;;;;;;;0.80;0.80;;;;;;;;;;5029675;28;20591;-35
2022/12/30 06:32:07;;;;;;;1.00;1.00;;;;;;;;;;5027602;28;20222;-33
2022/12/30 06:34:34;;;;;;;3.20;2.90;;;;;;;;;;5034789;28;20215;-34
2022/12/30 06:37:01;;;;;;;0.80;0.80;;;;;;;;;;5034919;28;20207;-38
2022/12/30 06:39:29;;;;;;;1.40;0.83;;;;;;;;;;5034992;28;20225;-34
2022/12/30 06:42:15;;;;;;;0.80;0.80;;;;;;;;;;5030259;28;20704;-31
2022/12/30 06:44:42;;;;;;;0.70;0.70;;;;;;;;;;5035137;28;20203;-37
2022/12/30 06:47:19;;;;;;;1.33;1.00;;;;;;;;;;5035847;28;20203;-35
2022/12/30 06:49:57;;;;;;;0.83;0.83;;;;;;;;;;5035889;28;20222;-33
2022/12/30 06:52:25;;;;;;;1.07;0.87;;;;;;;;;;5020510;28;20233;-36
2022/12/30 06:54:53;;;;;;;2.73;0.93;;;;;;;;;;5029033;28;20199;-36
2022/12/30 06:57:20;;;;;;;2.33;1.07;;;;;;;;;;5028692;28;20199;-36
2022/12/30 06:59:47;;;;;;;2.07;0.90;;;;;;;;;;5031216;28;20203;-36
2022/12/30 07:02:15;;;;;;;0.80;0.80;;;;;;;;;;5028374;28;20220;-30
2022/12/30 07:04:42;;;;;;;0.90;0.90;;;;;;;;;;5015178;28;20215;-37
2022/12/30 07:07:09;;;;;;;0.93;0.93;;;;;;;;;;5016195;28;20298;-36
2022/12/30 07:09:36;;;;;;;1.87;1.17;;;;;;;;;;5025495;28;20230;-34
2022/12/30 07:12:05;;;;;;;1.50;1.40;;;;;;;;;;5027357;28;20243;-36
2022/12/30 07:14:40;;;;;;;2.50;1.47;;;;;;;;;;5017723;28;20215;-33
2022/12/30 07:17:08;;;;;;;2.03;1.10;;;;;;;;;;5020340;28;20648;-35
2022/12/30 07:19:35;;;;;;;1.20;1.10;;;;;;;;;;5031380;28;20203;-34
2022/12/30 07:22:02;;;;;;;1.43;0.80;;;;;;;;;;5032521;28;20230;-37
2022/12/30 07:24:29;;;;;;;2.70;1.17;;;;;;;;;;5022062;28;20294;-33
2022/12/30 07:26:56;;;;;;;1.50;1.40;;;;;;;;;;5029952;28;20214;-36
2022/12/30 07:29:25;;;;;;;1.17;1.00;;;;;;;;;;5024222;28;20632;-32
2022/12/30 07:31:52;;;;;;;1.27;1.17;;;;;;;;;;5033548;28;20222;-33
2022/12/30 07:34:19;;;;;;;1.80;1.20;;;;;;;;;;5034037;28;20211;-34
2022/12/30 07:36:46;;;;;;;1.10;1.10;;;;;;;;;;5031243;28;20212;-29
2022/12/30 07:39:13;;;;;;;1.30;1.20;;;;;;;;;;5028657;28;20203;-36
2022/12/30 07:41:40;;;;;;;1.33;1.23;;;;;;;;;;5031017;28;20229;-36
2022/12/30 07:44:07;;;;;;;1.20;1.13;;;;;;;;;;5028665;28;20213;-35
2022/12/30 07:46:36;;;;;;;2.80;1.30;;;;;;;;;;5033281;28;20213;-37
2022/12/30 07:49:03;;;;;;;1.43;1.20;;;;;;;;;;5033435;28;20253;-31
2022/12/30 07:51:30;;;;;;;1.40;1.30;;;;;;;;;;5021340;28;20227;-32
2022/12/30 07:53:59;;;;;;;2.17;1.17;;;;;;;;;;5023715;28;20207;-32
2022/12/30 07:56:26;;;;;;;1.37;1.27;;;;;;;;;;5033033;28;20213;-34
2022/12/30 07:58:54;;;;;;;1.33;1.23;;;;;;;;;;5025539;28;20203;-31
2022/12/30 08:01:22;;;;;;;2.50;1.13;;;;;;;;;;5032288;28;20272;-35
2022/12/30 08:03:51;;;;;;;2.73;1.00;;;;;;;;;;5031339;28;20219;-30
2022/12/30 08:06:19;;;;;;;1.43;1.00;;;;;;;;;;5020729;28;20207;-36
2022/12/30 08:08:46;;;;;;;3.43;1.17;;;;;;;;;;5014008;28;20207;-34
2022/12/30 08:11:14;;;;;;;0.70;0.70;;;;;;;;;;5032399;28;20242;-32
2022/12/30 08:13:42;;;;;;;0.77;0.77;;;;;;;;;;5022293;28;20202;-38
2022/12/30 08:16:11;;;;;;;1.00;0.93;;;;;;;;;;5015868;28;20207;-32
2022/12/30 08:18:38;;;;;;;0.90;0.90;;;;;;;;;;5022056;28;20208;-32
2022/12/30 08:21:10;;;;;;;2.47;1.57;;;;;;;;;;5023059;28;20231;-34
2022/12/30 08:23:38;;;;;;;2.47;1.80;;;;;;;;;;5023423;28;20214;-34
2022/12/30 08:26:06;;;;;;;1.40;1.30;;;;;;;;;;5029268;28;20199;-33
2022/12/30 08:28:33;;;;;;;2.17;1.80;;;;;;;;;;5015669;28;20203;-35
2022/12/30 08:31:00;;;;;;;1.77;1.57;;;;;;;;;;5024000;28;20239;-36
2022/12/30 08:33:27;;;;;;;1.50;1.40;;;;;;;;;;5028638;28;20216;-34
2022/12/30 08:35:54;;;;;;;2.23;1.90;;;;;;;;;;5024093;28;20567;-33
2022/12/30 08:38:25;;;;;;;5.97;4.80;;;;;;;;;;5026273;28;20202;-35
2022/12/30 08:40:52;;;;;;;3.77;3.33;;;;;;;;;;5028707;28;20218;-35
2022/12/30 08:43:20;;;;;;;3.43;3.10;;;;;;;;;;5018034;28;20210;-32
2022/12/30 08:45:56;;;;;;;2.10;1.83;;;;;;;;;;5027086;28;20210;-33
2022/12/30 08:48:23;;;;;;;2.00;1.90;;;;;;;;;;5022675;28;20210;-37
2022/12/30 08:50:50;;;;;;;2.50;2.30;;;;;;;;;;5027691;28;20222;-36
2022/12/30 08:53:17;;;;;;;1.90;1.80;;;;;;;;;;5019050;28;20215;-30
2022/12/30 08:55:46;;;;;;;2.87;2.07;;;;;;;;;;5024131;28;20198;-36
2022/12/30 08:58:13;;;;;;;2.47;2.20;;;;;;;;;;5020366;28;20203;-34
2022/12/30 09:00:40;;;;;;;2.43;2.00;;;;;;;;;;5023335;28;20229;-31
2022/12/30 09:03:07;;;;;;;2.83;1.90;;;;;;;;;;5024337;28;20218;-32
2022/12/30 09:05:34;;;;;;;2.10;1.90;;;;;;;;;;5028192;28;20217;-33
2022/12/30 09:08:01;;;;;;;3.07;2.13;;;;;;;;;;5025390;28;20206;-33
2022/12/30 09:13:06;;;;;;;3.00;2.23;;;;;;;;;;5317638;23;20248;-37
2022/12/30 09:15:33;;;;;;;2.73;2.00;;;;;;;;;;5046194;28;20202;-38
2022/12/30 09:18:00;;;;;;;2.50;2.30;;;;;;;;;;5043021;28;20206;-37
2022/12/30 09:20:27;;;;;;;2.30;2.10;;;;;;;;;;5038878;28;20194;-36
2022/12/30 09:22:54;;;;;;;2.53;2.33;;;;;;;;;;5035966;28;20680;-40
2022/12/30 09:25:21;;;;;;;2.30;2.10;;;;;;;;;;5028936;28;20217;-38
2022/12/30 09:27:48;;;;;;;2.40;2.20;;;;;;;;;;5028824;28;20829;-35
2022/12/30 09:30:17;;;;;;;3.43;2.30;;;;;;;;;;5038622;28;20226;-35
2022/12/30 09:32:44;;;;;;;2.70;2.50;;;;;;;;;;5038186;28;20959;-33
2022/12/30 09:35:11;;;;;;;2.83;2.57;;;;;;;;;;5034350;28;20390;-37
2022/12/30 09:37:38;;;;;;;2.50;2.23;;;;;;;;;;5033488;28;20210;-34
2022/12/30 09:40:06;;;;;;;3.10;2.20;;;;;;;;;;5035647;28;20277;-37
2022/12/30 09:45:33;;;;;;;2.87;2.50;;;;;;;;;;5035929;28;20208;-40
2022/12/30 09:48:01;;;;;;;3.17;2.20;;;;;;;;;;5044495;28;20202;-34
2022/12/30 09:50:34;;;;;;;2.57;2.37;;;;;;;;;;5045085;28;20221;-34
2022/12/30 09:53:03;;;;;;;2.50;2.30;;;;;;;;;;5033314;28;20206;-35
2022/12/30 09:55:32;;;;;;;2.40;2.20;;;;;;;;;;5036707;28;20209;-39
2022/12/30 09:58:01;;;;;;;2.00;1.90;;;;;;;;;;5037137;28;20208;-36
2022/12/30 10:00:30;;;;;;;3.47;2.33;;;;;;;;;;5039063;28;20191;-33
2022/12/30 10:03:02;;;;;;;2.57;2.37;;;;;;;;;;5033643;28;20229;-32
2022/12/30 10:05:38;;;;;;;6.07;2.53;;;;;;;;;;5031764;28;20208;-40
2022/12/30 10:08:11;;;;;;;3.90;2.80;;;;;;;;;;5039472;28;20730;-34
2022/12/30 10:10:41;;;;;;;2.30;2.10;;;;;;;;;;5044023;28;20220;-31
2022/12/30 10:13:11;;;;;;;4.87;2.90;;;;;;;;;;5045047;28;20225;-31
2022/12/30 10:15:43;;;;;;;3.27;2.40;;;;;;;;;;5035243;28;20204;-39
2022/12/30 10:18:32;;;;;;;3.23;2.50;;;;;;;;;;5036767;28;20238;-36
2022/12/30 10:21:07;;;;;;;3.40;3.00;;;;;;;;;;5038837;28;20226;-37
2022/12/30 10:23:40;;;;;;;2.33;2.10;;;;;;;;;;5032399;28;20234;-32
2022/12/30 10:26:12;;;;;;;3.00;2.40;;;;;;;;;;5047040;28;20619;-39
2022/12/30 10:28:43;;;;;;;2.87;2.43;;;;;;;;;;5039493;28;20516;-33
2022/12/30 10:31:17;;;;;;;2.97;2.30;;;;;;;;;;5042360;28;20229;-33
2022/12/30 10:33:45;;;;;;;5.00;2.90;;;;;;;;;;5036783;28;20281;-36
2022/12/30 10:36:14;;;;;;;2.60;2.40;;;;;;;;;;5042453;28;20214;-34
2022/12/30 10:38:42;;;;;;;2.60;2.40;;;;;;;;;;5037622;28;20202;-37
2022/12/30 10:41:14;;;;;;;2.73;2.30;;;;;;;;;;5035056;28;20269;-39
2022/12/30 10:43:46;;;;;;;3.63;2.20;;;;;;;;;;5032213;28;20203;-34
2022/12/30 10:46:21;;;;;;;2.30;2.00;;;;;;;;;;5043553;28;20222;-35
2022/12/30 10:49:04;;;;;;;4.40;2.13;;;;;;;;;;5031254;28;20198;-33
2022/12/30 10:51:33;;;;;;;2.97;2.70;;;;;;;;;;5032565;28;20229;-35
2022/12/30 10:54:01;;;;;;;2.73;2.03;;;;;;;;;;5032119;28;20218;-31
2022/12/30 10:56:39;;;;;;;2.17;1.97;;;;;;;;;;5035121;28;20206;-34
2022/12/30 10:59:08;;;;;;;1.97;1.10;;;;;;;;;;5037146;28;20203;-36
2022/12/30 11:01:36;;;;;;;2.10;1.17;;;;;;;;;;5031419;28;20249;-34
2022/12/30 11:04:03;;;;;;;1.20;0.70;;;;;;;;;;5035048;28;20202;-33
2022/12/30 11:06:31;;;;;;;1.10;0.70;;;;;;;;;;5041914;28;20209;-37
2022/12/30 11:09:13;;;;;;;0.47;0.40;;;;;;;;;;5036048;28;20206;-32
2022/12/30 11:14:43;;;;;;;0.57;0.30;;;;;;;;;;5026962;28;20209;-34
2022/12/30 11:17:16;;;;;;;0.40;0.40;;;;;;;;;;5033814;28;20210;-37
2022/12/30 11:19:44;;;;;;;0.50;0.50;;;;;;;;;;5031754;28;20201;-38
2022/12/30 11:22:11;;;;;;;0.80;0.50;;;;;;;;;;5036950;28;20218;-36
2022/12/30 11:24:39;;;;;;;0.33;0.33;;;;;;;;;;5039548;28;20214;-39
2022/12/30 11:27:07;;;;;;;0.83;0.30;;;;;;;;;;5033387;28;20202;-35
2022/12/30 11:29:35;;;;;;;1.03;0.67;;;;;;;;;;5034367;28;20214;-31
2022/12/30 11:32:10;;;;;;;0.50;0.50;;;;;;;;;;5038374;28;20229;-35
2022/12/30 11:34:39;;;;;;;0.40;0.40;;;;;;;;;;5037919;28;20190;-37
2022/12/30 11:37:23;;;;;;;0.37;0.37;;;;;;;;;;5033612;28;20203;-34
2022/12/30 11:39:50;;;;;;;0.60;0.53;;;;;;;;;;5034658;28;20193;-33
2022/12/30 11:42:29;;;;;;;0.60;0.60;;;;;;;;;;5042035;28;20697;-39
2022/12/30 11:45:11;;;;;;;0.70;0.50;;;;;;;;;;5032626;28;20207;-34
2022/12/30 11:47:38;;;;;;;0.60;0.53;;;;;;;;;;5038689;28;20214;-36
2022/12/30 11:50:06;;;;;;;0.40;0.40;;;;;;;;;;5030230;28;20253;-41
2022/12/30 11:52:33;;;;;;;0.60;0.50;;;;;;;;;;5034460;28;20703;-36
2022/12/30 11:55:04;;;;;;;0.57;0.40;;;;;;;;;;5035690;28;20210;-36
2022/12/30 11:57:34;;;;;;;1.60;0.40;;;;;;;;;;5027845;28;20260;-37
2022/12/30 12:00:02;;;;;;;0.27;0.27;;;;;;;;;;5033801;28;20320;-37
2022/12/30 12:02:33;;;;;;;2.90;0.40;;;;;;;;;;5035786;28;20283;-35
2022/12/30 12:05:00;;;;;;;0.47;0.30;;;;;;;;;;5037125;28;20213;-36
2022/12/30 12:07:32;;;;;;;2.77;0.47;;;;;;;;;;5037009;28;20206;-35
2022/12/30 12:10:04;;;;;;;0.40;0.23;;;;;;;;;;5036031;28;20217;-40
2022/12/30 12:12:36;;;;;;;0.40;0.40;;;;;;;;;;5036132;28;20231;-31
2022/12/30 12:15:06;;;;;;;0.30;0.30;;;;;;;;;;5035513;28;20209;-33
2022/12/30 12:17:42;;;;;;;0.87;0.40;;;;;;;;;;5036231;28;20202;-38
2022/12/30 12:20:14;;;;;;;1.60;0.40;;;;;;;;;;5034808;28;20228;-40
2022/12/30 12:22:44;;;;;;;0.73;0.30;;;;;;;;;;5029414;28;20222;-33
2022/12/30 12:25:17;;;;;;;0.43;0.30;;;;;;;;;;5036437;28;20211;-32
2022/12/30 12:27:46;;;;;;;0.30;0.30;;;;;;;;;;5020962;28;20211;-33
2022/12/30 12:30:13;;;;;;;0.30;0.30;;;;;;;;;;5032488;28;20293;-34
2022/12/30 12:32:59;;;;;;;0.87;0.40;;;;;;;;;;5031299;28;20229;-32
2022/12/30 12:35:30;;;;;;;1.40;0.40;;;;;;;;;;5043953;28;20201;-37
2022/12/30 12:38:03;;;;;;;2.10;0.60;;;;;;;;;;5039209;28;20212;-32
2022/12/30 12:40:37;;;;;;;0.73;0.23;;;;;;;;;;5048315;28;20189;-36
2022/12/30 12:43:11;;;;;;;0.37;0.30;;;;;;;;;;5035610;28;20545;-30
2022/12/30 12:45:46;;;;;;;0.50;0.40;;;;;;;;;;5032777;28;20215;-36
2022/12/30 12:48:21;;;;;;;0.33;0.30;;;;;;;;;;5032416;28;20255;-33
2022/12/30 12:50:57;;;;;;;0.57;0.30;;;;;;;;;;5035361;28;20232;-37
2022/12/30 12:53:43;;;;;;;0.70;0.30;;;;;;;;;;5037269;28;20210;-37
2022/12/30 12:56:20;;;;;;;0.60;0.60;;;;;;;;;;5038851;28;20216;-32
2022/12/30 12:58:53;;;;;;;0.50;0.50;;;;;;;;;;5035360;28;20212;-33
2022/12/30 13:01:27;;;;;;;0.60;0.47;;;;;;;;;;5033048;28;20226;-38
2022/12/30 13:04:03;;;;;;;0.50;0.50;;;;;;;;;;5032530;28;20205;-34
2022/12/30 13:06:34;;;;;;;0.83;0.60;;;;;;;;;;5032828;28;20194;-34
2022/12/30 13:09:20;;;;;;;0.40;0.40;;;;;;;;;;5033456;28;20214;-36
2022/12/30 13:11:52;;;;;;;0.47;0.47;;;;;;;;;;5037675;28;20233;-35
2022/12/30 13:14:25;;;;;;;1.33;0.47;;;;;;;;;;5038556;28;20572;-37
2022/12/30 13:16:54;;;;;;;1.47;0.77;;;;;;;;;;5049610;28;20194;-37
2022/12/30 13:19:24;;;;;;;0.50;0.50;;;;;;;;;;5056276;28;20197;-37
2022/12/30 13:21:54;;;;;;;0.37;0.37;;;;;;;;;;5045126;28;20222;-37
2022/12/30 13:24:23;;;;;;;0.93;0.60;;;;;;;;;;5041660;28;20376;-37
2022/12/30 13:26:51;;;;;;;0.30;0.30;;;;;;;;;;5039845;28;20207;-40
2022/12/30 13:29:18;;;;;;;0.30;0.30;;;;;;;;;;5035419;28;20289;-32
2022/12/30 13:31:53;;;;;;;0.60;0.60;;;;;;;;;;5036738;28;20226;-33
2022/12/30 13:34:27;;;;;;;0.60;0.57;;;;;;;;;;5035645;28;20211;-33
2022/12/30 13:36:58;;;;;;;0.50;0.33;;;;;;;;;;5036599;28;20221;-32
2022/12/30 13:39:28;;;;;;;0.40;0.40;;;;;;;;;;5035558;28;20209;-37
2022/12/30 13:42:07;;;;;;;0.50;0.50;;;;;;;;;;5036653;28;20226;-38
2022/12/30 13:44:36;;;;;;;1.03;0.47;;;;;;;;;;5045791;28;20259;-32
2022/12/30 13:47:06;;;;;;;0.30;0.30;;;;;;;;;;5033825;28;20210;-38
2022/12/30 13:49:35;;;;;;;0.60;0.53;;;;;;;;;;5034939;28;20214;-35
2022/12/30 13:52:04;;;;;;;0.73;0.40;;;;;;;;;;5036015;28;20229;-34
2022/12/30 13:54:32;;;;;;;0.50;0.50;;;;;;;;;;5042365;28;20202;-38
2022/12/30 13:57:00;;;;;;;0.47;0.40;;;;;;;;;;5038514;28;20206;-32
2022/12/30 13:59:29;;;;;;;1.33;1.00;;;;;;;;;;5041382;28;20210;-37
2022/12/30 14:02:15;;;;;;;0.70;0.67;;;;;;;;;;5035673;28;20297;-31
2022/12/30 14:04:47;;;;;;;1.10;0.93;;;;;;;;;;5048817;28;20202;-37
2022/12/30 14:07:33;;;;;;;1.43;1.13;;;;;;;;;;5044762;28;20214;-40
2022/12/30 14:10:18;;;;;;;1.20;1.10;;;;;;;;;;5038277;28;20201;-38
2022/12/30 14:12:46;;;;;;;1.40;1.30;;;;;;;;;;5039400;28;20317;-31
2022/12/30 14:15:32;;;;;;;1.30;1.20;;;;;;;;;;5043704;28;20210;-34
2022/12/30 14:17:59;;;;;;;2.17;1.60;;;;;;;;;;5049047;28;20202;-37
2022/12/30 14:20:28;;;;;;;2.13;1.80;;;;;;;;;;5055230;28;20217;-38
2022/12/30 14:22:59;;;;;;;1.90;1.40;;;;;;;;;;5043847;28;20317;-37
2022/12/30 14:25:34;;;;;;;1.30;1.20;;;;;;;;;;5043291;28;20202;-32
2022/12/30 14:28:02;;;;;;;1.07;0.97;;;;;;;;;;5036843;28;20209;-35
2022/12/30 14:30:33;;;;;;;1.63;0.97;;;;;;;;;;5036272;28;20214;-34
2022/12/30 14:33:20;;;;;;;0.80;0.80;;;;;;;;;;5035540;28;20210;-35
2022/12/30 14:35:58;;;;;;;1.03;0.90;;;;;;;;;;5038361;28;20202;-31
2022/12/30 14:38:30;;;;;;;0.90;0.90;;;;;;;;;;5037883;28;20194;-38
2022/12/30 14:41:02;;;;;;;0.80;0.80;;;;;;;;;;5038208;28;20227;-33
2022/12/30 14:43:30;;;;;;;0.90;0.90;;;;;;;;;;5040887;28;20312;-38
2022/12/30 14:46:16;;;;;;;0.77;0.70;;;;;;;;;;5034921;28;20305;-38
2022/12/30 14:49:00;;;;;;;0.60;0.50;;;;;;;;;;5047784;28;20205;-42
2022/12/30 14:51:29;;;;;;;0.70;0.67;;;;;;;;;;5042496;28;20226;-34
2022/12/30 14:53:59;;;;;;;0.70;0.70;;;;;;;;;;5047447;28;20202;-37
2022/12/30 14:56:26;;;;;;;0.80;0.80;;;;;;;;;;5037308;28;20206;-35
2022/12/30 14:58:53;;;;;;;2.20;0.50;;;;;;;;;;5038827;28;20205;-38
2022/12/30 15:01:21;;;;;;;1.03;0.70;;;;;;;;;;5044316;28;20309;-38
2022/12/30 15:04:09;;;;;;;0.60;0.50;;;;;;;;;;5040773;28;20207;-36
2022/12/30 15:07:01;;;;;;;0.60;0.60;;;;;;;;;;5040731;28;20202;-37
2022/12/30 15:09:30;;;;;;;0.50;0.50;;;;;;;;;;5054238;28;20632;-36
2022/12/30 15:12:00;;;;;;;0.70;0.70;;;;;;;;;;5041338;28;20245;-34
2022/12/30 15:14:27;;;;;;;0.70;0.70;;;;;;;;;;5035455;28;20217;-32
2022/12/30 15:17:08;;;;;;;0.73;0.70;;;;;;;;;;5036128;28;20218;-35
2022/12/30 15:19:36;;;;;;;0.77;0.60;;;;;;;;;;5034214;28;20206;-33
2022/12/30 15:22:03;;;;;;;0.63;0.63;;;;;;;;;;5040113;28;20227;-32
2022/12/30 15:24:31;;;;;;;1.03;0.70;;;;;;;;;;5049852;28;20198;-36
2022/12/30 15:26:59;;;;;;;0.97;0.70;;;;;;;;;;5032677;28;20268;-32
2022/12/30 15:29:27;;;;;;;0.70;0.70;;;;;;;;;;5041772;28;20202;-35
2022/12/30 15:31:55;;;;;;;1.63;0.70;;;;;;;;;;5041492;28;20252;-33
2022/12/30 15:34:24;;;;;;;0.70;0.70;;;;;;;;;;5038183;28;20221;-32
2022/12/30 15:36:51;;;;;;;1.43;0.60;;;;;;;;;;5045352;28;20221;-37
2022/12/30 15:39:19;;;;;;;1.60;0.53;;;;;;;;;;5043312;28;20210;-34
2022/12/30 15:41:49;;;;;;;0.60;0.60;;;;;;;;;;5030630;28;20261;-33
2022/12/30 15:44:18;;;;;;;0.60;0.60;;;;;;;;;;5036822;28;20286;-33
2022/12/30 15:46:50;;;;;;;0.50;0.50;;;;;;;;;;5039811;28;20208;-30
2022/12/30 15:49:19;;;;;;;0.50;0.50;;;;;;;;;;5053609;28;20205;-35
2022/12/30 15:51:48;;;;;;;0.70;0.70;;;;;;;;;;5040127;28;20230;-33
2022/12/30 15:54:20;;;;;;;0.87;0.70;;;;;;;;;;5038419;28;20202;-34
2022/12/30 15:56:49;;;;;;;1.03;0.60;;;;;;;;;;5039514;28;20206;-29
2022/12/30 15:59:21;;;;;;;0.60;0.60;;;;;;;;;;5038944;28;20221;-37
2022/12/30 16:01:49;;;;;;;0.50;0.50;;;;;;;;;;5030904;28;20215;-31